Time;durP1;ratioP1;P1;durP2;ratioP2;P2;SDS_P1;SDS_P2;PMS_P1;PMS_P2;Temp;Humidity;BMP_temperature;BMP_pressure;BME280_temperature;BME280_humidity;BME280_pressure;Samples;Min_cycle;Max_cycle;Signal;HPM_P1;HPM_P2
2022/11/21 00:00:54;;;;;;;3.58;0.50;;;24.10;50.10;;;;;;5071674;28;20196;-84
2022/11/21 00:03:25;;;;;;;1.48;0.65;;;24.10;48.80;;;;;;5069753;28;20200;-81
2022/11/21 00:05:56;;;;;;;2.88;0.70;;;24.10;48.80;;;;;;5077556;28;20530;-81
2022/11/21 00:08:27;;;;;;;1.58;0.43;;;24.20;50.80;;;;;;5084211;28;20279;-80
2022/11/21 00:11:01;;;;;;;3.60;0.63;;;24.10;51.00;;;;;;5076589;28;20283;-81
2022/11/21 00:13:32;;;;;;;4.78;0.60;;;23.80;50.20;;;;;;5080804;28;20201;-82
2022/11/21 00:16:09;;;;;;;1.85;0.70;;;23.60;50.30;;;;;;5076407;28;20192;-81
2022/11/21 00:18:40;;;;;;;1.50;0.50;;;23.50;50.80;;;;;;5069356;28;20196;-81
2022/11/21 00:21:13;;;;;;;2.42;0.40;;;23.50;50.60;;;;;;5081503;28;20195;-80
2022/11/21 00:23:46;;;;;;;3.10;0.40;;;23.80;51.10;;;;;;5079103;28;20195;-81
2022/11/21 00:26:18;;;;;;;3.38;0.68;;;24.00;51.40;;;;;;5066731;28;20223;-81
2022/11/21 00:28:49;;;;;;;2.92;0.50;;;24.10;49.90;;;;;;5070779;28;20200;-82
2022/11/21 00:31:25;;;;;;;1.58;0.32;;;24.00;47.70;;;;;;5080059;28;20200;-81
2022/11/21 00:33:57;;;;;;;1.50;0.60;;;24.10;48.70;;;;;;5071364;28;20216;-82
2022/11/21 00:36:28;;;;;;;2.00;0.57;;;24.40;48.00;;;;;;5059020;28;20597;-81
2022/11/21 00:38:59;;;;;;;3.28;0.50;;;24.20;47.40;;;;;;5071994;28;20210;-81
2022/11/21 00:41:30;;;;;;;2.35;0.63;;;23.90;47.90;;;;;;5063049;28;20986;-81
2022/11/21 00:44:00;;;;;;;1.85;0.60;;;23.70;48.20;;;;;;5080617;28;20565;-81
2022/11/21 00:46:33;;;;;;;2.88;0.90;;;23.50;48.10;;;;;;5067126;28;20334;-82
2022/11/21 00:49:05;;;;;;;3.47;0.50;;;23.60;49.00;;;;;;5066083;28;20722;-81
2022/11/21 00:51:36;;;;;;;1.80;0.50;;;23.60;48.80;;;;;;5073030;28;20195;-81
2022/11/21 00:54:07;;;;;;;0.95;0.40;;;23.90;48.80;;;;;;5063357;28;20220;-81
2022/11/21 00:56:37;;;;;;;1.13;0.60;;;23.90;47.40;;;;;;5064060;28;20210;-80
2022/11/21 00:59:08;;;;;;;2.42;0.50;;;24.00;47.20;;;;;;5061760;28;20203;-82
2022/11/21 01:01:41;;;;;;;2.00;0.50;;;24.20;47.10;;;;;;5063521;28;20201;-80
2022/11/21 01:04:12;;;;;;;2.75;0.50;;;24.30;48.10;;;;;;5066114;28;20206;-80
2022/11/21 01:06:43;;;;;;;9.30;0.77;;;24.30;46.40;;;;;;5055691;28;20709;-81
2022/11/21 01:09:14;;;;;;;2.75;0.80;;;24.10;47.50;;;;;;5066434;28;20192;-80
2022/11/21 01:11:46;;;;;;;6.28;0.60;;;24.30;48.30;;;;;;5064687;28;20203;-80
2022/11/21 01:14:18;;;;;;;3.30;0.93;;;24.50;48.80;;;;;;5063227;28;20196;-83
2022/11/21 01:16:52;;;;;;;2.47;0.60;;;24.40;47.20;;;;;;5067958;28;20211;-83
2022/11/21 01:19:22;;;;;;;3.00;0.50;;;24.00;46.90;;;;;;5063488;28;20241;-81
2022/11/21 01:21:53;;;;;;;1.83;0.55;;;23.90;48.20;;;;;;5068761;28;20234;-83
2022/11/21 01:24:24;;;;;;;3.75;0.63;;;23.90;48.40;;;;;;5060739;28;20196;-84
2022/11/21 01:26:55;;;;;;;3.30;0.70;;;24.10;48.30;;;;;;5064966;28;20224;-82
2022/11/21 01:29:26;;;;;;;1.92;0.60;;;24.10;47.60;;;;;;5067773;28;20192;-81
2022/11/21 01:31:58;;;;;;;3.80;0.70;;;23.90;46.90;;;;;;5056190;28;20195;-82
2022/11/21 01:34:29;;;;;;;2.17;0.77;;;23.90;47.70;;;;;;5061018;28;20192;-82
2022/11/21 01:37:01;;;;;;;3.10;0.50;;;24.00;48.10;;;;;;5060585;28;20252;-83
2022/11/21 01:39:32;;;;;;;3.38;0.60;;;24.30;47.90;;;;;;5062339;28;20224;-83
2022/11/21 01:42:04;;;;;;;4.32;0.55;;;24.50;48.00;;;;;;5068847;28;20200;-84
2022/11/21 01:44:52;;;;;;;1.23;0.40;;;24.50;47.70;;;;;;5062530;28;20925;-84
2022/11/21 01:47:25;;;;;;;1.70;0.47;;;24.60;46.70;;;;;;5076319;28;20224;-86
2022/11/21 01:49:57;;;;;;;3.47;0.60;;;24.50;46.90;;;;;;5071154;28;20212;-86
2022/11/21 01:52:32;;;;;;;1.67;0.50;;;24.30;46.60;;;;;;5066974;28;20192;-84
2022/11/21 01:55:06;;;;;;;6.63;0.60;;;24.00;46.90;;;;;;5050487;28;20211;-82
2022/11/21 01:57:41;;;;;;;6.13;0.90;;;24.20;46.40;;;;;;5046227;28;20611;-84
2022/11/21 02:00:17;;;;;;;1.40;0.60;;;23.90;46.60;;;;;;5046279;28;20849;-84
2022/11/21 02:02:54;;;;;;;1.70;0.50;;;23.90;46.80;;;;;;5041719;28;20223;-83
2022/11/21 02:05:27;;;;;;;1.23;0.47;;;23.70;47.30;;;;;;5049009;28;20239;-83
2022/11/21 02:08:04;;;;;;;1.92;0.43;;;23.60;47.60;;;;;;5052063;28;20234;-82
2022/11/21 02:10:38;;;;;;;2.80;0.50;;;23.60;47.80;;;;;;5045304;28;20219;-84
2022/11/21 02:13:09;;;;;;;2.13;0.40;;;23.80;48.90;;;;;;5043020;28;20299;-84
2022/11/21 02:15:40;;;;;;;1.92;0.50;;;23.70;48.80;;;;;;5053258;28;20212;-84
2022/11/21 02:18:15;;;;;;;1.33;0.30;;;23.70;49.40;;;;;;5044715;28;20224;-83
2022/11/21 02:20:50;;;;;;;6.55;0.82;;;23.50;49.80;;;;;;5042073;28;20231;-83
2022/11/21 02:23:26;;;;;;;2.28;0.95;;;23.50;49.60;;;;;;5044228;28;20246;-84
2022/11/21 02:26:00;;;;;;;4.25;0.55;;;23.40;49.70;;;;;;5045803;28;20527;-84
2022/11/21 02:28:31;;;;;;;1.30;0.55;;;23.60;50.30;;;;;;5045482;28;20902;-83
2022/11/21 02:31:02;;;;;;;3.80;0.50;;;23.80;49.70;;;;;;5045885;28;20200;-83
2022/11/21 02:33:34;;;;;;;1.92;0.40;;;24.00;48.90;;;;;;5040436;28;20254;-84
2022/11/21 02:36:06;;;;;;;3.42;0.80;;;23.90;48.70;;;;;;5041426;28;20576;-83
2022/11/21 02:38:40;;;;;;;3.45;0.57;;;23.80;48.80;;;;;;5045937;28;20258;-82
2022/11/21 02:41:17;;;;;;;1.98;0.40;;;23.80;48.20;;;;;;5042864;28;20210;-83
2022/11/21 02:44:00;;;;;;;0.93;0.43;;;23.60;48.20;;;;;;5034445;28;20204;-83
2022/11/21 02:46:32;;;;;;;5.18;0.35;;;23.70;48.50;;;;;;5042940;28;20222;-83
2022/11/21 02:49:06;;;;;;;2.58;0.30;;;23.60;48.30;;;;;;5043466;28;20824;-83
2022/11/21 02:51:36;;;;;;;3.40;0.50;;;23.70;48.90;;;;;;5065230;28;20205;-82
2022/11/21 02:54:08;;;;;;;2.00;0.40;;;23.90;48.10;;;;;;5044046;28;20243;-81
2022/11/21 02:56:40;;;;;;;2.53;0.57;;;24.00;48.40;;;;;;5040387;28;20319;-80
2022/11/21 02:59:12;;;;;;;1.48;0.40;;;24.10;47.40;;;;;;5046317;28;20206;-82
2022/11/21 03:01:43;;;;;;;5.55;0.43;;;24.30;47.40;;;;;;5047254;28;20211;-82
2022/11/21 03:04:15;;;;;;;3.22;0.50;;;24.40;47.40;;;;;;5043682;28;21228;-80
2022/11/21 03:06:46;;;;;;;1.10;0.32;;;24.30;46.20;;;;;;5045071;28;20200;-81
2022/11/21 03:09:17;;;;;;;3.47;0.40;;;24.10;47.30;;;;;;5045285;28;20200;-80
2022/11/21 03:11:49;;;;;;;3.67;0.40;;;24.10;46.50;;;;;;5043929;28;20200;-83
2022/11/21 03:14:20;;;;;;;5.40;0.68;;;24.20;46.80;;;;;;5055045;28;20575;-82
2022/11/21 03:16:51;;;;;;;4.63;0.65;;;24.00;46.90;;;;;;5046932;28;21132;-84
2022/11/21 03:19:22;;;;;;;5.30;0.60;;;23.40;46.60;;;;;;5043737;28;20204;-80
2022/11/21 03:21:53;;;;;;;3.40;0.50;;;23.70;47.50;;;;;;5045596;28;20195;-82
2022/11/21 03:24:23;;;;;;;1.25;0.43;;;24.10;47.10;;;;;;5050191;28;20196;-82
2022/11/21 03:26:56;;;;;;;2.20;0.30;;;24.30;44.90;;;;;;5067036;28;20223;-81
2022/11/21 03:29:27;;;;;;;4.53;0.40;;;24.30;45.10;;;;;;5059987;28;20219;-82
2022/11/21 03:31:59;;;;;;;1.35;0.40;;;24.20;43.80;;;;;;5064443;28;20277;-81
2022/11/21 03:34:30;;;;;;;5.03;0.70;;;24.30;44.20;;;;;;5061968;28;20212;-82
2022/11/21 03:37:02;;;;;;;3.50;0.30;;;24.30;44.70;;;;;;5074415;28;20187;-81
2022/11/21 03:39:33;;;;;;;1.05;0.55;;;24.30;44.70;;;;;;5087250;28;20207;-81
2022/11/21 03:42:06;;;;;;;2.85;0.43;;;24.40;45.10;;;;;;5063516;28;20282;-82
2022/11/21 03:44:37;;;;;;;2.83;0.40;;;24.70;45.80;;;;;;5070492;28;20199;-81
2022/11/21 03:47:08;;;;;;;2.22;0.68;;;24.90;45.20;;;;;;5056222;28;20239;-81
2022/11/21 03:49:40;;;;;;;3.42;0.47;;;24.80;45.30;;;;;;5063133;28;20218;-82
2022/11/21 03:52:11;;;;;;;8.02;0.68;;;24.80;45.50;;;;;;5083881;28;20275;-82
2022/11/21 03:54:44;;;;;;;4.95;0.70;;;24.40;43.80;;;;;;5072161;28;20227;-83
2022/11/21 03:57:17;;;;;;;2.65;0.52;;;24.40;45.20;;;;;;5076999;28;20257;-82
2022/11/21 03:59:48;;;;;;;3.30;0.75;;;24.40;45.50;;;;;;5063137;28;20220;-83
2022/11/21 04:02:19;;;;;;;0.85;0.30;;;24.50;45.20;;;;;;5068272;28;20200;-84
2022/11/21 04:04:50;;;;;;;3.50;0.60;;;24.70;44.30;;;;;;5051565;28;20206;-85
2022/11/21 04:07:21;;;;;;;4.45;0.50;;;24.70;44.20;;;;;;5073607;28;20231;-84
2022/11/21 04:09:52;;;;;;;1.30;0.55;;;24.90;44.60;;;;;;5078105;28;20290;-84
2022/11/21 04:12:25;;;;;;;2.00;0.40;;;24.80;43.10;;;;;;5076852;28;20196;-82
2022/11/21 04:14:56;;;;;;;1.98;0.40;;;24.40;44.80;;;;;;5070997;28;20313;-82
2022/11/21 04:17:27;;;;;;;4.03;0.60;;;24.30;47.30;;;;;;5071612;28;20203;-82
2022/11/21 04:19:59;;;;;;;1.48;0.40;;;24.50;48.00;;;;;;5068825;28;20230;-84
2022/11/21 04:22:29;;;;;;;1.83;0.47;;;24.40;47.20;;;;;;5065186;28;20277;-81
2022/11/21 04:25:01;;;;;;;2.13;0.50;;;24.50;48.10;;;;;;5060344;28;20196;-82
2022/11/21 04:27:34;;;;;;;3.08;0.73;;;24.20;48.00;;;;;;5058019;28;20221;-82
2022/11/21 04:30:05;;;;;;;1.40;0.57;;;24.00;48.10;;;;;;5066468;28;20200;-83
2022/11/21 04:32:36;;;;;;;2.65;0.55;;;23.90;46.70;;;;;;5062706;28;20305;-83
2022/11/21 04:35:07;;;;;;;2.03;0.50;;;24.20;47.50;;;;;;5063210;28;20679;-83
2022/11/21 04:37:41;;;;;;;4.47;0.60;;;24.10;47.40;;;;;;5068385;28;20202;-81
2022/11/21 04:40:12;;;;;;;0.43;0.30;;;23.80;48.20;;;;;;5062380;28;20288;-83
2022/11/21 04:42:48;;;;;;;2.25;0.43;;;24.00;48.00;;;;;;5064902;28;20201;-83
2022/11/21 04:45:19;;;;;;;3.35;0.57;;;23.90;47.80;;;;;;5062966;28;20191;-83
2022/11/21 04:47:50;;;;;;;2.70;0.52;;;24.00;47.80;;;;;;5068207;28;20307;-82
2022/11/21 04:50:22;;;;;;;1.75;0.57;;;24.60;47.90;;;;;;5068043;28;20192;-83
2022/11/21 04:52:54;;;;;;;3.70;0.40;;;24.50;43.10;;;;;;5067357;28;20263;-83
2022/11/21 04:55:27;;;;;;;3.30;0.35;;;23.90;44.60;;;;;;5060792;28;20237;-82
2022/11/21 04:58:00;;;;;;;0.95;0.32;;;24.00;46.20;;;;;;5066667;28;20199;-82
2022/11/21 05:00:31;;;;;;;3.92;0.52;;;24.30;45.30;;;;;;5068408;28;20278;-82
2022/11/21 05:03:05;;;;;;;2.03;0.40;;;24.40;44.40;;;;;;5072264;28;20192;-82
2022/11/21 05:05:37;;;;;;;2.20;0.40;;;24.40;44.40;;;;;;5068524;28;20194;-82
2022/11/21 05:08:08;;;;;;;2.10;0.45;;;24.70;44.80;;;;;;5059533;28;20231;-83
2022/11/21 05:13:24;;;;;;;6.57;0.70;;;24.90;45.20;;;;;;5069245;28;20195;-82
2022/11/21 05:16:00;;;;;;;1.85;0.68;;;25.00;44.10;;;;;;5063007;28;20216;-82
2022/11/21 05:18:31;;;;;;;4.10;0.80;;;24.30;45.40;;;;;;5069978;28;20721;-82
2022/11/21 05:21:04;;;;;;;1.58;0.57;;;24.20;45.90;;;;;;5073015;28;20600;-82
2022/11/21 05:23:35;;;;;;;5.57;0.60;;;24.10;44.70;;;;;;5065097;28;20227;-82
2022/11/21 05:26:06;;;;;;;1.67;0.50;;;23.10;45.90;;;;;;5063131;28;20662;-82
2022/11/21 05:28:39;;;;;;;1.30;0.38;;;22.80;48.20;;;;;;5067955;28;20226;-83
2022/11/21 05:31:11;;;;;;;2.13;0.60;;;23.60;47.40;;;;;;5063108;28;20216;-83
2022/11/21 05:33:42;;;;;;;1.90;0.65;;;23.90;42.80;;;;;;5063992;28;20199;-83
2022/11/21 05:36:12;;;;;;;2.63;0.47;;;23.90;42.90;;;;;;5059505;28;20198;-82
2022/11/21 05:38:49;;;;;;;3.17;0.60;;;24.30;42.60;;;;;;5059028;28;20196;-82
2022/11/21 05:41:20;;;;;;;2.53;0.55;;;24.50;42.80;;;;;;5081387;28;20195;-81
2022/11/21 05:43:51;;;;;;;1.67;0.68;;;24.50;42.80;;;;;;5073951;28;20526;-82
2022/11/21 05:46:24;;;;;;;1.58;0.60;;;24.70;42.20;;;;;;5072659;28;20199;-82
2022/11/21 05:48:56;;;;;;;4.90;0.70;;;24.40;41.80;;;;;;5069009;28;20235;-81
2022/11/21 05:51:27;;;;;;;3.38;0.70;;;24.20;41.00;;;;;;5066701;28;20192;-82
2022/11/21 05:53:58;;;;;;;1.67;0.63;;;23.90;41.50;;;;;;5069441;28;20235;-82
2022/11/21 05:56:29;;;;;;;0.80;0.50;;;24.40;42.60;;;;;;5064404;28;20215;-83
2022/11/21 05:59:02;;;;;;;4.93;0.55;;;24.70;41.70;;;;;;5065123;28;20200;-83
2022/11/21 06:04:19;;;;;;;1.20;0.57;;;24.90;41.30;;;;;;5050214;28;20192;-81
2022/11/21 06:06:50;;;;;;;1.70;0.50;;;24.70;41.40;;;;;;5064019;28;20264;-81
2022/11/21 06:09:21;;;;;;;2.08;0.80;;;24.90;41.20;;;;;;5067723;28;20231;-81
2022/11/21 06:11:52;;;;;;;1.35;0.60;;;25.00;41.40;;;;;;5071838;28;20207;-82
2022/11/21 06:14:25;;;;;;;1.27;0.50;;;25.40;41.80;;;;;;5065582;28;20196;-81
2022/11/21 06:16:56;;;;;;;2.35;0.75;;;24.90;39.90;;;;;;5066244;28;20222;-83
2022/11/21 06:19:26;;;;;;;4.13;0.80;;;25.00;39.90;;;;;;5066077;28;20239;-82
2022/11/21 06:21:57;;;;;;;2.17;0.80;;;25.40;39.50;;;;;;5067725;28;20625;-82
2022/11/21 06:24:28;;;;;;;1.95;0.70;;;25.20;38.80;;;;;;5070109;28;20216;-83
2022/11/21 06:27:00;;;;;;;2.72;0.70;;;24.50;40.30;;;;;;5077027;28;20216;-83
2022/11/21 06:29:33;;;;;;;2.97;0.77;;;24.50;39.30;;;;;;5056564;28;20303;-86
2022/11/21 06:32:04;;;;;;;3.58;0.95;;;24.60;39.70;;;;;;5072759;28;20282;-86
2022/11/21 06:34:36;;;;;;;1.08;0.45;;;25.20;38.90;;;;;;5068452;28;20216;-86
2022/11/21 06:37:08;;;;;;;3.88;0.80;;;25.70;38.60;;;;;;5063486;28;20199;-85
2022/11/21 06:39:39;;;;;;;1.60;0.70;;;25.80;38.10;;;;;;5073148;28;20203;-85
2022/11/21 06:42:10;;;;;;;2.05;0.77;;;26.00;37.80;;;;;;5074585;28;20215;-83
2022/11/21 06:44:43;;;;;;;3.03;0.50;;;25.70;38.00;;;;;;5071645;28;20228;-83
2022/11/21 06:47:13;;;;;;;2.47;0.68;;;25.50;37.30;;;;;;5066623;28;20246;-85
2022/11/21 06:49:44;;;;;;;1.83;0.68;;;25.40;38.40;;;;;;5060711;28;20240;-84
2022/11/21 06:52:15;;;;;;;3.30;1.00;;;25.70;38.20;;;;;;5069623;28;20196;-84
2022/11/21 06:54:46;;;;;;;2.38;0.90;;;26.00;38.20;;;;;;5065266;28;20219;-84
2022/11/21 06:57:17;;;;;;;2.53;0.90;;;25.80;37.30;;;;;;5067611;28;20216;-84
2022/11/21 06:59:50;;;;;;;2.33;0.68;;;25.30;37.40;;;;;;5066760;28;20201;-83
2022/11/21 07:02:21;;;;;;;2.47;0.85;;;24.90;38.80;;;;;;5061806;28;20251;-84
2022/11/21 07:04:52;;;;;;;2.08;0.82;;;25.00;37.80;;;;;;5065893;28;20203;-85
2022/11/21 07:07:23;;;;;;;2.67;0.70;;;24.70;38.00;;;;;;5072355;28;20658;-86
2022/11/21 07:09:54;;;;;;;1.20;0.57;;;24.80;38.00;;;;;;5065712;28;20217;-85
2022/11/21 07:15:14;;;;;;;2.50;0.63;;;25.00;38.00;;;;;;5073869;28;20688;-85
2022/11/21 07:17:45;;;;;;;1.10;0.40;;;24.40;38.60;;;;;;5075914;28;20198;-85
2022/11/21 07:20:16;;;;;;;3.15;0.70;;;24.40;39.20;;;;;;5053032;28;20276;-85
2022/11/21 07:22:47;;;;;;;0.85;0.40;;;25.30;38.70;;;;;;5071639;28;20279;-84
2022/11/21 07:25:18;;;;;;;3.72;0.80;;;26.20;38.20;;;;;;5073255;28;20207;-86
2022/11/21 07:27:49;;;;;;;3.05;0.70;;;25.80;37.50;;;;;;5074176;28;20232;-84
2022/11/21 07:30:23;;;;;;;4.25;1.10;;;24.90;38.40;;;;;;5072354;28;20219;-87
2022/11/21 07:32:59;;;;;;;1.60;0.50;;;24.90;38.40;;;;;;5068973;28;20215;-83
2022/11/21 07:35:30;;;;;;;1.80;0.70;;;24.80;37.70;;;;;;5077406;28;20275;-82
2022/11/21 07:38:01;;;;;;;3.63;0.88;;;24.50;38.50;;;;;;5070764;28;20222;-83
2022/11/21 07:40:34;;;;;;;3.42;0.60;;;24.50;38.70;;;;;;5065834;28;20545;-85
2022/11/21 07:43:06;;;;;;;3.72;0.70;;;24.10;39.30;;;;;;5064505;28;20241;-82
2022/11/21 07:45:41;;;;;;;5.88;0.80;;;23.80;38.70;;;;;;5074775;28;20199;-82
2022/11/21 07:48:13;;;;;;;2.70;0.70;;;23.10;39.70;;;;;;5064527;28;20257;-82
2022/11/21 07:50:43;;;;;;;2.83;0.50;;;22.90;40.20;;;;;;5071728;28;20208;-82
2022/11/21 07:53:15;;;;;;;4.30;1.08;;;22.50;40.70;;;;;;5068622;28;20590;-82
2022/11/21 07:55:46;;;;;;;2.40;0.70;;;22.20;42.10;;;;;;5070267;28;20222;-82
2022/11/21 07:58:19;;;;;;;5.28;0.90;;;22.10;41.80;;;;;;5058733;28;20589;-84
2022/11/21 08:00:52;;;;;;;1.90;0.60;;;21.80;41.50;;;;;;5069336;28;20197;-83
2022/11/21 08:03:24;;;;;;;2.72;0.82;;;21.50;42.80;;;;;;5068697;28;20658;-84
2022/11/21 08:05:54;;;;;;;0.98;0.50;;;21.30;43.50;;;;;;5051885;28;20200;-84
2022/11/21 08:08:26;;;;;;;2.83;0.93;;;21.10;43.10;;;;;;5072853;28;20287;-84
2022/11/21 08:10:58;;;;;;;5.03;0.68;;;21.10;43.00;;;;;;5084629;28;20762;-84
2022/11/21 08:13:32;;;;;;;3.47;0.90;;;21.10;42.60;;;;;;5076630;28;20267;-86
2022/11/21 08:16:05;;;;;;;1.48;0.43;;;20.90;43.00;;;;;;5060086;28;20666;-85
2022/11/21 08:18:37;;;;;;;4.22;1.00;;;20.70;43.10;;;;;;5064389;28;20204;-86
2022/11/21 08:21:09;;;;;;;4.43;0.98;;;20.50;43.30;;;;;;5059763;28;20663;-85
2022/11/21 08:23:39;;;;;;;5.30;1.45;;;20.30;44.10;;;;;;5059896;28;20313;-84
2022/11/21 08:26:12;;;;;;;5.25;1.17;;;20.20;44.30;;;;;;5063843;28;20196;-84
2022/11/21 08:28:43;;;;;;;2.40;0.65;;;20.10;44.70;;;;;;5057553;28;20277;-83
2022/11/21 08:31:15;;;;;;;2.08;0.88;;;20.00;44.90;;;;;;5059423;28;20188;-82
2022/11/21 08:33:46;;;;;;;3.25;0.90;;;20.10;45.10;;;;;;5062956;28;20279;-84
2022/11/21 08:36:20;;;;;;;2.30;0.55;;;20.00;44.80;;;;;;5052725;28;20694;-84
2022/11/21 08:38:51;;;;;;;3.95;1.30;;;20.00;45.00;;;;;;5067648;28;20192;-84
2022/11/21 08:44:09;;;;;;;2.08;0.65;;;19.80;46.20;;;;;;5071005;28;20202;-83
2022/11/21 08:46:42;;;;;;;4.85;0.80;;;19.70;46.50;;;;;;5056495;28;20215;-82
2022/11/21 08:49:13;;;;;;;5.00;0.77;;;19.80;46.70;;;;;;5053946;28;20220;-82
2022/11/21 08:51:44;;;;;;;1.60;0.60;;;19.80;46.90;;;;;;5061184;28;20594;-84
2022/11/21 08:54:14;;;;;;;3.65;0.70;;;19.60;46.90;;;;;;5068077;28;20241;-83
2022/11/21 08:56:45;;;;;;;1.05;0.50;;;19.50;47.30;;;;;;5053141;28;20283;-83
2022/11/21 08:59:16;;;;;;;2.15;1.00;;;19.50;48.30;;;;;;5055433;28;20192;-83
2022/11/21 09:01:49;;;;;;;3.00;0.80;;;19.50;48.50;;;;;;5067173;28;20263;-80
2022/11/21 09:04:20;;;;;;;2.05;0.85;;;19.50;47.50;;;;;;5075499;28;20210;-82
2022/11/21 09:06:58;;;;;;;3.95;0.85;;;19.50;47.60;;;;;;5078045;28;20256;-82
2022/11/21 09:09:29;;;;;;;2.28;0.77;;;19.40;47.50;;;;;;5072815;28;20222;-81
2022/11/21 09:12:00;;;;;;;3.65;1.10;;;19.30;47.50;;;;;;5091060;28;20200;-83
2022/11/21 09:20:08;;;;;;;1.70;0.93;;;19.00;47.20;;;;;;5067993;28;20190;-82
2022/11/21 09:22:39;;;;;;;2.15;0.80;;;19.10;48.30;;;;;;5070512;28;20211;-82
2022/11/21 09:25:11;;;;;;;2.20;0.60;;;19.10;47.70;;;;;;5066865;28;20207;-82
2022/11/21 09:27:41;;;;;;;2.00;0.60;;;19.10;47.60;;;;;;5067999;28;20680;-81
2022/11/21 09:30:13;;;;;;;1.55;0.55;;;19.20;47.70;;;;;;5071216;28;20230;-82
2022/11/21 09:32:45;;;;;;;1.02;0.60;;;19.10;47.40;;;;;;5066810;28;20217;-82
2022/11/21 09:35:17;;;;;;;2.67;0.47;;;19.10;46.90;;;;;;5063097;28;20208;-81
2022/11/21 09:37:48;;;;;;;2.28;0.60;;;19.00;47.30;;;;;;5068685;28;20291;-83
2022/11/21 09:40:19;;;;;;;1.73;0.45;;;18.80;47.50;;;;;;5070682;28;20194;-81
2022/11/21 09:43:24;;;;;;;1.52;0.50;;;18.90;48.20;;;;;;5073076;28;20198;-83
2022/11/21 09:46:02;;;;;;;2.45;0.70;;;18.80;48.20;;;;;;5022290;28;20746;-83
2022/11/21 09:48:41;;;;;;;1.40;0.50;;;18.80;48.70;;;;;;5054910;28;20217;-83
2022/11/21 09:51:20;;;;;;;2.47;0.70;;;18.80;48.70;;;;;;5069773;28;20222;-82
2022/11/21 09:53:59;;;;;;;0.75;0.43;;;18.80;48.60;;;;;;5072998;28;20342;-82
2022/11/21 09:56:33;;;;;;;1.27;0.50;;;18.80;48.50;;;;;;5089140;28;20193;-82
2022/11/21 09:59:19;;;;;;;1.27;0.60;;;18.90;48.80;;;;;;5095144;28;20201;-82
2022/11/21 10:01:50;;;;;;;2.03;0.65;;;18.90;50.30;;;;;;5070880;28;20200;-81
2022/11/21 10:04:23;;;;;;;1.38;0.55;;;19.00;50.00;;;;;;5056281;28;20263;-80
2022/11/21 10:07:01;;;;;;;2.03;0.68;;;18.80;50.40;;;;;;5058315;28;20196;-80
2022/11/21 10:09:43;;;;;;;1.95;0.52;;;18.70;51.10;;;;;;5077142;28;20751;-80
2022/11/21 10:12:39;;;;;;;1.73;0.50;;;18.80;50.90;;;;;;5076620;28;20282;-81
2022/11/21 10:15:28;;;;;;;1.17;0.50;;;18.90;51.00;;;;;;5085817;28;20211;-81
2022/11/21 10:18:15;;;;;;;2.45;0.60;;;18.80;51.40;;;;;;5061459;28;20260;-80
2022/11/21 10:21:00;;;;;;;2.25;0.52;;;18.70;51.40;;;;;;5080239;28;20204;-81
2022/11/21 10:23:56;;;;;;;1.55;0.40;;;18.80;51.50;;;;;;5075488;28;20195;-83
2022/11/21 10:26:38;;;;;;;3.33;0.60;;;18.90;51.50;;;;;;5063019;28;20290;-82
2022/11/21 10:29:18;;;;;;;2.85;0.50;;;18.70;50.80;;;;;;5075748;28;20547;-82
2022/11/21 10:31:50;;;;;;;1.73;0.52;;;18.50;51.00;;;;;;5072802;28;20198;-82
2022/11/21 10:34:24;;;;;;;1.85;0.60;;;18.40;51.50;;;;;;5067695;28;20582;-82
2022/11/21 10:37:00;;;;;;;2.00;0.60;;;18.40;52.20;;;;;;5059467;28;20707;-82
2022/11/21 10:39:39;;;;;;;3.15;0.73;;;18.30;52.70;;;;;;5075396;28;20192;-82
2022/11/21 10:42:19;;;;;;;2.25;0.57;;;18.40;53.20;;;;;;5067020;28;20196;-81
2022/11/21 10:47:39;;;;;;;1.85;0.52;;;18.20;53.50;;;;;;5073496;28;20343;-82
2022/11/21 10:50:43;;;;;;;1.52;0.30;;;18.10;53.90;;;;;;5073078;28;20220;-82
2022/11/21 10:56:11;;;;;;;2.75;0.55;;;18.20;53.80;;;;;;5073878;28;20397;-81
2022/11/21 10:58:46;;;;;;;1.20;0.47;;;18.20;53.70;;;;;;5071686;28;20195;-82
2022/11/21 11:01:25;;;;;;;1.42;0.40;;;18.30;54.10;;;;;;5065152;28;20243;-82
2022/11/21 11:04:20;;;;;;;2.15;0.50;;;18.30;54.10;;;;;;5076598;28;20200;-81
2022/11/21 11:06:52;;;;;;;0.88;0.43;;;18.40;54.50;;;;;;5067836;28;20216;-82
2022/11/21 11:09:33;;;;;;;1.25;0.35;;;18.30;54.30;;;;;;5068924;28;20273;-82
2022/11/21 11:13:32;;;;;;;1.55;0.50;;;18.40;54.00;;;;;;5077396;28;20204;-81
2022/11/21 11:15:22;;;;;;;1.63;0.43;;;18.30;54.30;;;;;;5079119;28;20198;-81
2022/11/21 11:17:55;;;;;;;1.30;0.50;;;18.30;54.50;;;;;;5072212;28;20195;-82
2022/11/21 11:20:36;;;;;;;2.53;0.70;;;18.40;53.90;;;;;;5066053;28;20283;-81
2022/11/21 11:23:28;;;;;;;1.48;0.60;;;18.20;54.40;;;;;;5067296;28;20662;-81
2022/11/21 11:26:02;;;;;;;2.03;0.43;;;18.00;54.80;;;;;;5071337;28;20227;-80
2022/11/21 11:28:38;;;;;;;0.77;0.50;;;18.00;54.00;;;;;;5072137;28;20255;-81
2022/11/21 11:31:10;;;;;;;4.57;0.55;;;17.90;54.00;;;;;;5071837;28;20255;-82
2022/11/21 11:33:43;;;;;;;1.05;0.40;;;17.70;53.90;;;;;;5067375;28;20317;-83
2022/11/21 11:36:23;;;;;;;1.95;0.55;;;17.80;53.60;;;;;;5071794;28;20200;-83
2022/11/21 11:38:58;;;;;;;3.58;0.60;;;17.80;53.90;;;;;;5066974;28;20200;-83
2022/11/21 11:48:06;;;;;;;2.08;0.47;;;17.60;55.60;;;;;;5061127;28;20253;-84
2022/11/21 11:50:42;;;;;;;3.03;0.50;;;17.60;55.20;;;;;;5058503;28;20231;-81
2022/11/21 11:53:18;;;;;;;1.77;0.60;;;17.50;55.50;;;;;;5043672;28;20284;-81
2022/11/21 11:56:16;;;;;;;3.17;0.40;;;17.50;56.20;;;;;;5036714;28;20745;-82
2022/11/21 11:58:53;;;;;;;3.33;0.50;;;17.40;56.10;;;;;;5036480;28;20696;-84
2022/11/21 12:01:31;;;;;;;1.13;0.40;;;17.40;56.70;;;;;;5035962;28;20232;-82
2022/11/21 12:04:05;;;;;;;1.33;0.65;;;17.30;57.70;;;;;;5044018;28;20267;-83
2022/11/21 12:06:38;;;;;;;2.67;0.60;;;17.30;58.00;;;;;;5046560;28;20238;-83
2022/11/21 12:09:19;;;;;;;1.48;0.60;;;16.90;58.70;;;;;;5052977;28;20207;-84
2022/11/21 12:12:11;;;;;;;1.77;0.60;;;16.80;59.60;;;;;;5042696;28;20224;-86
2022/11/21 12:17:52;;;;;;;1.38;0.43;;;16.60;62.50;;;;;;5042656;28;20244;-84
2022/11/21 12:20:27;;;;;;;1.15;0.30;;;16.60;63.70;;;;;;5045294;28;20206;-83
2022/11/21 12:22:58;;;;;;;1.83;0.35;;;16.70;63.40;;;;;;5044478;28;20227;-83
2022/11/21 12:25:33;;;;;;;1.73;0.30;;;16.80;64.00;;;;;;5048411;28;20219;-82
2022/11/21 12:28:17;;;;;;;2.00;0.40;;;16.60;63.50;;;;;;5051595;28;20307;-82
2022/11/21 12:31:04;;;;;;;1.38;0.50;;;16.60;63.00;;;;;;5032340;28;20314;-82
2022/11/21 12:33:42;;;;;;;0.30;0.20;;;16.60;63.00;;;;;;5042380;28;20730;-83
2022/11/21 12:36:29;;;;;;;3.05;0.45;;;16.60;61.90;;;;;;5046916;28;20220;-81
2022/11/21 12:39:29;;;;;;;1.35;0.30;;;16.70;61.60;;;;;;5049149;28;20259;-81
2022/11/21 12:45:19;;;;;;;2.92;0.40;;;16.30;63.20;;;;;;5057785;28;20226;-82
2022/11/21 12:56:58;;;;;;;0.73;0.30;;;16.10;67.40;;;;;;5068762;28;20203;-81
2022/11/21 12:59:30;;;;;;;1.30;0.30;;;16.20;67.70;;;;;;5058667;28;20723;-82
2022/11/21 13:02:07;;;;;;;1.15;0.30;;;16.20;68.00;;;;;;5062017;28;20222;-82
2022/11/21 13:04:42;;;;;;;1.60;0.40;;;16.00;68.80;;;;;;5069894;28;20179;-83
2022/11/21 13:07:13;;;;;;;0.50;0.38;;;16.00;69.40;;;;;;5070820;28;20566;-82
2022/11/21 13:09:48;;;;;;;2.22;0.30;;;16.00;70.60;;;;;;5064899;28;20764;-82
2022/11/21 13:12:22;;;;;;;0.68;0.30;;;16.10;70.30;;;;;;5068103;28;20199;-82
2022/11/21 13:14:59;;;;;;;1.77;0.30;;;16.20;71.10;;;;;;5071688;28;20282;-82
2022/11/21 13:17:43;;;;;;;0.95;0.38;;;16.10;70.30;;;;;;5061387;28;20221;-81
2022/11/21 13:20:35;;;;;;;1.88;0.40;;;16.00;71.60;;;;;;5049452;28;20209;-80
2022/11/21 13:23:07;;;;;;;1.90;0.50;;;16.00;72.20;;;;;;5065487;28;20269;-82
2022/11/21 13:25:49;;;;;;;1.00;0.38;;;16.10;73.40;;;;;;5062313;28;20272;-85
2022/11/21 13:28:40;;;;;;;0.45;0.30;;;16.10;72.40;;;;;;5046572;28;20227;-83
2022/11/21 13:31:32;;;;;;;2.92;0.30;;;15.90;73.50;;;;;;5064080;28;20259;-82
2022/11/21 13:34:03;;;;;;;1.98;0.32;;;15.70;75.20;;;;;;5062366;28;20197;-82
2022/11/21 13:36:43;;;;;;;0.88;0.30;;;15.70;76.60;;;;;;5063496;28;20222;-82
2022/11/21 13:39:36;;;;;;;0.85;0.38;;;15.60;76.40;;;;;;5062349;28;20586;-81
2022/11/21 13:44:58;;;;;;;1.58;0.30;;;15.60;78.10;;;;;;5057803;28;20226;-82
2022/11/21 13:48:00;;;;;;;2.10;0.32;;;15.80;77.70;;;;;;5070805;28;20188;-82
2022/11/21 13:51:16;;;;;;;1.13;0.20;;;15.70;78.30;;;;;;5068114;28;20228;-82
2022/11/21 13:54:12;;;;;;;0.75;0.25;;;15.80;79.10;;;;;;5055112;28;20232;-83
2022/11/21 13:56:57;;;;;;;1.02;0.30;;;15.70;79.60;;;;;;5060871;28;20249;-82
2022/11/21 13:59:45;;;;;;;1.38;0.55;;;15.80;80.80;;;;;;5059630;28;20192;-84
2022/11/21 14:02:46;;;;;;;1.60;0.30;;;15.80;81.30;;;;;;5055740;28;20197;-82
2022/11/21 14:05:40;;;;;;;1.77;0.45;;;15.70;83.10;;;;;;5061796;28;20188;-82
2022/11/21 14:08:25;;;;;;;1.65;0.60;;;15.70;83.60;;;;;;5053151;28;20570;-82
2022/11/21 14:10:58;;;;;;;0.95;0.40;;;15.60;86.70;;;;;;5064758;28;20215;-82
2022/11/21 14:13:33;;;;;;;0.63;0.22;;;15.50;86.80;;;;;;5068857;28;20202;-81